createdAt,value
2022-09-12T00:02:56.851Z,98059.00
2022-09-12T00:06:57.884Z,98051.00
2022-09-12T00:11:02.639Z,98051.00
2022-09-12T00:15:04.799Z,98044.00
2022-09-12T00:19:07.156Z,98040.00
2022-09-12T00:23:08.208Z,98035.00
2022-09-12T00:27:09.234Z,98043.00
2022-09-12T00:31:16.639Z,98040.00
2022-09-12T00:35:17.815Z,98040.00
2022-09-12T00:39:19.146Z,98041.00
2022-09-12T00:43:39.280Z,98032.00
2022-09-12T00:47:41.538Z,98029.00
2022-09-12T00:51:46.378Z,98034.00
2022-09-12T00:55:50.222Z,98026.00
2022-09-12T00:59:54.913Z,98015.00
2022-09-12T01:03:56.085Z,98014.00
2022-09-12T01:07:57.243Z,98008.00
2022-09-12T01:11:59.889Z,98012.00
2022-09-12T01:16:04.151Z,98011.00
2022-09-12T01:20:40.193Z,98017.00
2022-09-12T01:24:54.485Z,98001.00
2022-09-12T01:29:19.138Z,97999.00
2022-09-12T01:33:23.916Z,97989.00
2022-09-12T01:37:37.794Z,97997.00
2022-09-12T01:41:54.464Z,97994.00
2022-09-12T01:46:02.132Z,97993.00
2022-09-12T01:50:09.029Z,98002.00
2022-09-12T01:54:22.228Z,97989.00
2022-09-12T01:58:42.964Z,97990.00
2022-09-12T02:02:51.313Z,97983.00
2022-09-12T02:07:08.313Z,97984.00
2022-09-12T02:11:11.752Z,97977.00
2022-09-12T02:15:14.603Z,97977.00
2022-09-12T02:19:19.150Z,97978.00
2022-09-12T02:23:23.957Z,97981.00
2022-09-12T02:27:31.687Z,97966.00
2022-09-12T02:31:47.990Z,97964.00
2022-09-12T02:35:55.913Z,97962.00
2022-09-12T02:39:58.449Z,97971.00
2022-09-12T02:43:59.418Z,97967.00
2022-09-12T02:48:07.260Z,97966.00
2022-09-12T02:52:08.369Z,97968.00
2022-09-12T02:56:13.084Z,97971.00
2022-09-12T03:00:14.495Z,97958.00
2022-09-12T03:04:38.694Z,97964.00
2022-09-12T03:08:55.329Z,97963.00
2022-09-12T03:13:05.905Z,97965.00
2022-09-12T03:17:34.523Z,97955.00
2022-09-12T03:21:42.063Z,97962.00
2022-09-12T03:25:55.938Z,97969.00
2022-09-12T03:29:57.696Z,97960.00
2022-09-12T03:34:01.596Z,97960.00
2022-09-12T03:38:02.945Z,97956.00
2022-09-12T03:42:04.017Z,97961.00
2022-09-12T03:46:05.329Z,97967.00
2022-09-12T03:50:07.184Z,97972.00
2022-09-12T03:54:08.312Z,97963.00
2022-09-12T03:58:09.255Z,97960.00
2022-09-12T04:02:12.430Z,97952.00
2022-09-12T04:06:15.228Z,97876.00
2022-09-12T04:10:16.473Z,97954.00
2022-09-12T04:14:17.524Z,97961.00
2022-09-12T04:18:18.458Z,97953.00
2022-09-12T04:22:19.816Z,97955.00
2022-09-12T04:26:20.911Z,97956.00
2022-09-12T04:30:22.023Z,97954.00
2022-09-12T04:34:23.076Z,97960.00
2022-09-12T04:38:24.136Z,97959.00
2022-09-12T04:42:25.964Z,97962.00
2022-09-12T04:46:28.731Z,97967.00
2022-09-12T04:50:29.695Z,97962.00
2022-09-12T04:54:30.634Z,97963.00
2022-09-12T04:58:32.695Z,97971.00
2022-09-12T05:02:34.233Z,97970.00
2022-09-12T05:06:36.716Z,97969.00
2022-09-12T05:10:37.986Z,97968.00
2022-09-12T05:14:40.026Z,97973.00
2022-09-12T05:18:42.108Z,97967.00
2022-09-12T05:22:43.117Z,97966.00
2022-09-12T05:26:44.184Z,97965.00
2022-09-12T05:30:45.201Z,97973.00
2022-09-12T05:34:46.806Z,97971.00
2022-09-12T05:38:47.929Z,97965.00
2022-09-12T05:42:48.941Z,97967.00
2022-09-12T05:46:50.804Z,97972.00
2022-09-12T05:50:51.729Z,97973.00
2022-09-12T05:54:52.677Z,97969.00
2022-09-12T05:59:03.481Z,97970.00
2022-09-12T06:03:04.709Z,97975.00
2022-09-12T06:07:05.969Z,97986.00
2022-09-12T06:11:08.797Z,97981.00
2022-09-12T06:15:10.133Z,97973.00
2022-09-12T06:19:14.400Z,97982.00
2022-09-12T06:23:15.380Z,97978.00
2022-09-12T06:27:16.391Z,97977.00
2022-09-12T06:31:20.462Z,97984.00
2022-09-12T06:35:21.425Z,97978.00
2022-09-12T06:39:23.062Z,97968.00
2022-09-12T06:43:24.216Z,97973.00
2022-09-12T06:47:25.175Z,97958.00
2022-09-12T06:51:28.008Z,97960.00
2022-09-12T06:55:29.282Z,97960.00
2022-09-12T06:59:30.237Z,97965.00
2022-09-12T07:03:32.710Z,97971.00
2022-09-12T07:07:35.238Z,97974.00
2022-09-12T07:11:39.365Z,97968.00
2022-09-12T07:15:42.111Z,97969.00
2022-09-12T07:19:43.655Z,97962.00
2022-09-12T07:23:44.903Z,97963.00
2022-09-12T07:27:50.581Z,97970.00
2022-09-12T07:31:48.886Z,97954.00
2022-09-12T07:35:49.962Z,97959.00
2022-09-12T07:39:50.897Z,97962.00
2022-09-12T07:43:54.939Z,97968.00
2022-09-12T07:47:56.240Z,97957.00
2022-09-12T07:51:57.134Z,97955.00
2022-09-12T07:55:58.114Z,97962.00
2022-09-12T07:59:58.980Z,97963.00
2022-09-12T08:04:00.297Z,97959.00
2022-09-12T08:08:01.511Z,97968.00
2022-09-12T08:12:02.820Z,97972.00
2022-09-12T08:16:11.315Z,97967.00
2022-09-12T08:20:12.563Z,97971.00
2022-09-12T08:24:14.959Z,97973.00
2022-09-12T08:28:18.322Z,97975.00
2022-09-12T08:32:19.877Z,97978.00
2022-09-12T08:36:23.897Z,97978.00
2022-09-12T08:40:24.995Z,97982.00
2022-09-12T08:44:48.261Z,97985.00
2022-09-12T08:48:51.283Z,97977.00
2022-09-12T08:52:57.986Z,97976.00
2022-09-12T08:57:02.777Z,97982.00
2022-09-12T09:01:25.906Z,97980.00
2022-09-12T09:05:46.661Z,97976.00
2022-09-12T09:10:13.455Z,97984.00
2022-09-12T09:14:45.927Z,97974.00
2022-09-12T09:18:48.936Z,97984.00
2022-09-12T09:23:09.066Z,97982.00
2022-09-12T09:27:39.375Z,97964.00
2022-09-12T09:31:23.783Z,97973.00
2022-09-12T09:35:46.503Z,97964.00
2022-09-12T09:40:07.625Z,97966.00
2022-09-12T09:44:09.381Z,97970.00
2022-09-12T09:48:14.272Z,97978.00
2022-09-12T09:52:18.368Z,97976.00
2022-09-12T09:56:32.504Z,97976.00
2022-09-12T10:00:35.881Z,97970.00
2022-09-12T10:04:41.540Z,97973.00
2022-09-12T10:08:42.756Z,97967.00
2022-09-12T10:12:44.017Z,97955.00
2022-09-12T10:16:52.587Z,97959.00
2022-09-12T10:20:54.598Z,97949.00
2022-09-12T10:25:00.425Z,97953.00
2022-09-12T10:29:08.167Z,97960.00
2022-09-12T10:33:12.183Z,97946.00
2022-09-12T10:37:34.880Z,97941.00
2022-09-12T10:41:38.668Z,97940.00
2022-09-12T10:45:39.786Z,97945.00
2022-09-12T10:49:41.048Z,97947.00
2022-09-12T10:53:45.880Z,97942.00
2022-09-12T10:57:56.548Z,97945.00
2022-09-12T11:02:22.416Z,97951.00
2022-09-12T11:06:27.515Z,97941.00
2022-09-12T11:10:38.074Z,97939.00
2022-09-12T11:15:02.852Z,97934.00
2022-09-12T11:19:19.792Z,97932.00
2022-09-12T11:23:48.787Z,97934.00
2022-09-12T11:28:25.623Z,97929.00
2022-09-12T11:32:54.176Z,97926.00
2022-09-12T11:37:18.202Z,97916.00
2022-09-12T11:41:37.887Z,97925.00
2022-09-12T11:45:42.548Z,97918.00
2022-09-12T11:49:47.947Z,97908.00
2022-09-12T11:54:00.639Z,97905.00
2022-09-12T11:58:01.969Z,97916.00
2022-09-12T12:02:05.616Z,97912.00
2022-09-12T12:06:18.339Z,97921.00
2022-09-12T12:10:57.970Z,97915.00
2022-09-12T12:15:00.826Z,97906.00
2022-09-12T12:19:10.023Z,97888.00
2022-09-12T12:23:23.665Z,97890.00
2022-09-12T12:27:48.512Z,97888.00
2022-09-12T12:32:03.232Z,97884.00
2022-09-12T12:36:10.603Z,97881.00
2022-09-12T12:40:24.511Z,97869.00
2022-09-12T12:44:48.591Z,97869.00
2022-09-12T12:48:53.590Z,97866.00
2022-09-12T12:53:07.030Z,97859.00
2022-09-12T12:57:47.022Z,97853.00
2022-09-12T13:01:55.666Z,97843.00
2022-09-12T13:06:03.688Z,97850.00
2022-09-12T13:10:07.375Z,97846.00
2022-09-12T13:14:41.315Z,97833.00
2022-09-12T13:18:48.680Z,97836.00
2022-09-12T13:22:51.224Z,97838.00
2022-09-12T13:26:53.111Z,97832.00
2022-09-12T13:31:26.447Z,97823.00
2022-09-12T13:35:43.555Z,97834.00
2022-09-12T13:39:50.905Z,97824.00
2022-09-12T13:43:52.779Z,97830.00
2022-09-12T13:48:02.727Z,97817.00
2022-09-12T13:52:08.521Z,97815.00
2022-09-12T13:56:19.542Z,97810.00
2022-09-12T14:00:21.773Z,97817.00
2022-09-12T14:04:43.723Z,97807.00
2022-09-12T14:08:47.690Z,97802.00
2022-09-12T14:12:51.285Z,97797.00
2022-09-12T14:16:54.748Z,97806.00
2022-09-12T14:21:01.632Z,97799.00
2022-09-12T14:25:03.752Z,97793.00
2022-09-12T14:29:06.572Z,97783.00
2022-09-12T14:33:14.532Z,97784.00
2022-09-12T14:37:15.751Z,97777.00
2022-09-12T14:41:26.903Z,97771.00
2022-09-12T14:45:33.615Z,97770.00
2022-09-12T14:49:36.098Z,97768.00
2022-09-12T14:53:37.480Z,97766.00
2022-09-12T14:57:40.204Z,97752.00
2022-09-12T15:01:41.335Z,97746.00
2022-09-12T15:05:49.792Z,97747.00
2022-09-12T15:09:53.804Z,97747.00
2022-09-12T15:13:55.936Z,97736.00
2022-09-12T15:17:57.689Z,97747.00
2022-09-12T15:22:00.159Z,97742.00
2022-09-12T15:26:02.617Z,97741.00
2022-09-12T15:30:05.123Z,97742.00
2022-09-12T15:34:06.065Z,97731.00
2022-09-12T15:38:07.434Z,97737.00
2022-09-12T15:42:10.594Z,97744.00
2022-09-12T15:46:13.174Z,97749.00
2022-09-12T15:50:15.114Z,97746.00
2022-09-12T15:54:17.897Z,97738.00
2022-09-12T15:58:19.160Z,97724.00
2022-09-12T16:02:20.652Z,97711.00
2022-09-12T16:06:23.063Z,97712.00
2022-09-12T16:10:28.003Z,97708.00
2022-09-12T16:14:29.218Z,97707.00
2022-09-12T16:18:30.157Z,97702.00
2022-09-12T16:22:31.632Z,97707.00
2022-09-12T16:26:32.498Z,97701.00
2022-09-12T16:30:34.227Z,97690.00
2022-09-12T16:34:35.211Z,97693.00
2022-09-12T16:38:44.421Z,97687.00
2022-09-12T16:42:46.230Z,97685.00
2022-09-12T16:46:48.471Z,97686.00
2022-09-12T16:50:58.026Z,97687.00
2022-09-12T16:54:58.998Z,97684.00
2022-09-12T16:59:00.075Z,97689.00
2022-09-12T17:03:01.356Z,97695.00
2022-09-12T17:07:02.311Z,97693.00
2022-09-12T17:11:07.207Z,97690.00
2022-09-12T17:15:09.443Z,97692.00
2022-09-12T17:19:16.582Z,97686.00
2022-09-12T17:23:17.647Z,97674.00
2022-09-12T17:27:18.643Z,97672.00
2022-09-12T17:31:20.169Z,97676.00
2022-09-12T17:35:22.268Z,97677.00
2022-09-12T17:39:23.354Z,97677.00
2022-09-12T17:43:24.620Z,97676.00
2022-09-12T17:47:25.690Z,97670.00
2022-09-12T17:51:29.955Z,97681.00
2022-09-12T17:55:36.450Z,97687.00
2022-09-12T17:59:37.746Z,97690.00
2022-09-12T18:03:38.812Z,97685.00
2022-09-12T18:07:43.983Z,97693.00
2022-09-12T18:11:42.674Z,97693.00
2022-09-12T18:15:43.875Z,97694.00
2022-09-12T18:19:48.347Z,97695.00
2022-09-12T18:23:49.139Z,97683.00
2022-09-12T18:27:50.352Z,97677.00
2022-09-12T18:31:51.689Z,97657.00
2022-09-12T18:35:53.100Z,97668.00
2022-09-12T18:39:54.909Z,97677.00
2022-09-12T18:43:59.160Z,97679.00
2022-09-12T18:48:00.642Z,97684.00
2022-09-12T18:52:01.737Z,97681.00
2022-09-12T18:56:08.017Z,97677.00
2022-09-12T19:00:12.478Z,97687.00
2022-09-12T19:04:13.739Z,97684.00
2022-09-12T19:08:15.278Z,97687.00
2022-09-12T19:12:16.390Z,97674.00
2022-09-12T19:16:21.099Z,97680.00
2022-09-12T19:20:22.246Z,97687.00
2022-09-12T19:24:23.707Z,97670.00
2022-09-12T19:28:25.356Z,97669.00
2022-09-12T19:32:26.507Z,97669.00
2022-09-12T19:36:44.356Z,97669.00
2022-09-12T19:40:30.877Z,97665.00
2022-09-12T19:44:31.800Z,97665.00
2022-09-12T19:48:32.974Z,97670.00
2022-09-12T19:52:33.987Z,97657.00
2022-09-12T19:56:35.286Z,97646.00
2022-09-12T20:00:36.991Z,97638.00
2022-09-12T20:04:38.598Z,97633.00
2022-09-12T20:08:41.651Z,97622.00
2022-09-12T20:12:43.370Z,97622.00
2022-09-12T20:16:44.903Z,97609.00
2022-09-12T20:20:46.064Z,97600.00
2022-09-12T20:24:47.738Z,97590.00
2022-09-12T20:28:50.412Z,97594.00
2022-09-12T20:32:51.391Z,97599.00
2022-09-12T20:36:53.091Z,97599.00
2022-09-12T20:40:54.164Z,97598.00
2022-09-12T20:44:55.613Z,97594.00
2022-09-12T20:48:58.867Z,97600.00
2022-09-12T20:53:01.053Z,97592.00
2022-09-12T20:57:02.270Z,97585.00
2022-09-12T21:01:10.881Z,97573.00
2022-09-12T21:05:12.071Z,97563.00
2022-09-12T21:09:14.355Z,97576.00
2022-09-12T21:13:15.418Z,97569.00
2022-09-12T21:17:16.515Z,97562.00
2022-09-12T21:21:18.717Z,97568.00
2022-09-12T21:25:19.724Z,97560.00
2022-09-12T21:29:20.672Z,97564.00
2022-09-12T21:33:22.237Z,97560.00
2022-09-12T21:37:23.303Z,97557.00
2022-09-12T21:41:24.418Z,97569.00
2022-09-12T21:45:25.399Z,97577.00
2022-09-12T21:49:26.406Z,97567.00
2022-09-12T21:53:27.945Z,97556.00
2022-09-12T22:01:53.969Z,97557.00
2022-09-12T22:06:00.937Z,97553.00
2022-09-12T22:10:03.660Z,97546.00
2022-09-12T22:14:04.905Z,97538.00
2022-09-12T22:18:07.090Z,97557.00
2022-09-12T22:22:26.491Z,97550.00
2022-09-12T22:26:28.563Z,97546.00
2022-09-12T22:30:29.523Z,97533.00
2022-09-12T22:34:30.771Z,97532.00
2022-09-12T22:38:31.803Z,97532.00
2022-09-12T22:42:33.164Z,97533.00
2022-09-12T22:46:34.109Z,97528.00
2022-09-12T22:50:35.158Z,97530.00
2022-09-12T22:54:37.089Z,97526.00
2022-09-12T22:58:38.106Z,97512.00
2022-09-12T23:02:39.168Z,97499.00
2022-09-12T23:06:40.147Z,97500.00
2022-09-12T23:10:41.175Z,97543.00
2022-09-12T23:14:42.813Z,97522.00
2022-09-12T23:18:44.403Z,97518.00
2022-09-12T23:22:45.485Z,97520.00
2022-09-12T23:26:46.381Z,97509.00
2022-09-12T23:30:51.144Z,97493.00
2022-09-12T23:34:52.488Z,97500.00
2022-09-12T23:38:54.683Z,97518.00
2022-09-12T23:42:55.849Z,97524.00
2022-09-12T23:46:56.815Z,97530.00
2022-09-12T23:50:57.814Z,97525.00
2022-09-12T23:54:58.730Z,97510.00
2022-09-12T23:58:59.680Z,97525.00
